Tropical Cyclones
[Index]
Main Index Home Page Stock Weather Photos Extreme Storms Discussion Storm News and Storm Chasing Reports Tropical Cyclones / Hurricanes / Typhoons Weather Data and Links Wild Fires / Bushfires Weather Observation Techniques Weather Picture Catalogue Tornado Pictures and Reports Stock Video Footage and DVDs for sale
Season 1972-1973 Tropical Cyclone KIRSTY Track Map
Season 1972-1973 Summaries: [BoM-AU] [JTWC-AU] [JTWC-SIO] [JTWC-SPAC] [JTWC-SH]
<<- Previous TC | BoM 1972-1973 Season | Next TC ->>

click for intensity scale information  Lat/long Grid: Show Hide

 Date Labels: Show Hide

Bureau of Meteorology Tropical Cyclone Data

Name: KIRSTY
Number: 503 / 197273_07

24 Feb 1973 20:00 UTC to 01 Mar 1973 05:00 UTC

    date/time    lat    long    hPa   cat  kts
1973-02-24 20   14.5   157.5    999                     
1973-02-24 23   14.6   157.4    998                     
1973-02-25 02   14.8   157.3    996                     
1973-02-25 05   15.1   157.3    994    1                
1973-02-25 08   15.3   157.2    992    1                
1973-02-25 11   15.8   157.1    990    1                
1973-02-25 14   16.1   157.0    988    1                
1973-02-25 17   16.4   156.9    986    1                
1973-02-25 20   16.7   156.7    984    2                
1973-02-25 23   17.1   156.5    982    2                
1973-02-26 02   17.5   156.2    981    2                
1973-02-26 05   17.9   155.8    980    2                
1973-02-26 08   18.2   155.6    979    2                
1973-02-26 11   18.5   155.4    978    2                
1973-02-26 14   19.2   155.2    977    2                
1973-02-26 17   19.6   155.0    976    2                
1973-02-26 20   20.2   154.9    976    2                
1973-02-26 23   21.1   154.9    975    2                
1973-02-27 02   21.9   155.1    976    2                
1973-02-27 05   22.7   155.3    977    2                
1973-02-27 08   23.7   155.5    978    2                
1973-02-27 11   24.6   155.7    980    2                
1973-02-27 14   25.6   155.9    981    2                
1973-02-27 17   26.5   156.1    982    2                
1973-02-27 20   27.4   156.3    984    2                
1973-02-27 23   28.2   156.5    986    1                
1973-02-28 02   28.9   156.8    987    1                
1973-02-28 05   29.7   157.0    988    1                
1973-02-28 08   30.2   157.2    989    1                
1973-02-28 11   30.8   157.7    990    1                
1973-02-28 14   31.2   158.1    991    1                
1973-02-28 17   31.8   158.7    992    1                
1973-02-28 20   32.2   159.2    993    1                
1973-02-28 23   32.8   159.8    994    1                
1973-03-01 02   33.3   160.2    995    1                
1973-03-01 05   34.3   160.6    996                     
Winds are 10-min average.

Tropical cyclone tracks developed by Michael Bath using data from the Bureau of Meteorology and Google Maps.


[Australian Severe Weather index] [Copyright Notice] [Email Contacts] [Search This Site] [Privacy Policy]
Document: tropical_cyclone_kirsty.htm Updated: 30 May 2013